首页
METAR-TAF:

METAR-TAF

机场 :

North Myrtle Beach, 南卡罗来纳州, 美国

纬度: 33-48-42N, 经度: 078-43-26W, 海拔: 10米

当前天气观测

该预报发布于33分钟前的18:53 UTC
风速13节,风向,有时为24节阵风
温度 6°C
湿度 49%
气压 1029 hPa
能見度: 16.1公里
天空无云

METAR: KCRE 211853Z 01013G24KT 10SM CLR 06/M04 A3040 RMK AO1 PK WND 03026/1822 SLP293 T00561044

时间: 14:26 (19:26 UTC)

预报

该预报发布于2小时和6分钟前的17:20 UTC
预报有效从21日的 18点(UTC)到 22日的 18点(UTC)
风速17节,风向,有时为24节阵风
能見度: 10公里
散云层高于3500英尺
从 21日的 2300点(UTC)
风速13节,风向
能見度: 10公里
天空无云
从 22日的 0600点(UTC)
风速9节,风向
能見度: 10公里
天空无云

TAF: KCRE 211720Z 2118/2218 01017G24KT P6SM SCT035 FM212300 01013KT P6SM SKC FM220600 01009KT P6SM SKC

超过4000个机场的气象观测和天气预报(METAR&TAF报告)。

可查询的气象台以黄色和红色小点在地图上表示。

将鼠标移到小点上方,可查看气象台名称。

然后点击查看天气观测和预报。

如需切换地图:点击带黑十字的绿色按钮放大地图;点击带横线的绿色按钮缩小地图;或者点击绿色箭头查看邻近地区的地图。


METAR-TAF: